Ballymahon, Ireland
Current Conditions -  °F | °C
As of 6:00 PM on Tuesday 21 Oct 2014 (Local Time) from EIKN Reporting Station
Rain Showers Rain Showers  
Wind Chill:   Ceiling: 3500
Heat Index:   Visibility: 6mi
Dew Point:   Wind: 14mph
Humidity: 81%   Direction: 280°W
Pressure: 30.15"   Gusts: NA
Location:  53.56°N, 7.77°W
Report Text: EIKN 211800Z 28012KT 9999 -SHRA FEW020CB SCT025 BKN035 08/05 Q1021 NOSIG
Loading
Personal Weather Stations






























Interactive Weather Map
Tropical Storm Tracking
New forecast layout! Learn more

10-Day Weather Forecast

Advertisements
Track Severe Weather on mobile